createdAt,value
2022-08-23T00:04:16.572Z,93.60
2022-08-23T00:11:33.798Z,93.90
2022-08-23T00:18:34.496Z,94.20
2022-08-23T00:25:35.208Z,94.50
2022-08-23T00:32:39.077Z,94.80
2022-08-23T00:39:40.723Z,95.10
2022-08-23T00:47:25.429Z,95.40
2022-08-23T00:54:28.670Z,95.60
2022-08-23T01:01:29.504Z,95.90
2022-08-23T01:08:32.617Z,96.30
2022-08-23T01:15:43.061Z,96.60
2022-08-23T01:23:19.146Z,96.90
2022-08-23T01:30:24.067Z,97.20
2022-08-23T01:37:25.747Z,97.30
2022-08-23T01:44:27.365Z,97.60
2022-08-23T01:51:30.390Z,97.90
2022-08-23T01:58:32.821Z,98.20
2022-08-23T02:05:37.179Z,98.40
2022-08-23T02:12:37.890Z,98.60
2022-08-23T02:19:46.464Z,98.70
2022-08-23T02:26:56.461Z,98.90
2022-08-23T02:41:17.574Z,99.40
2022-08-23T02:48:19.828Z,99.50
2022-08-23T02:55:30.982Z,99.80
2022-08-23T03:02:31.476Z,99.90
2022-08-23T03:09:32.979Z,99.90
2022-08-23T03:16:33.657Z,99.90
2022-08-23T03:23:35.823Z,99.90
2022-08-23T03:30:36.947Z,99.90
2022-08-23T03:37:41.384Z,99.90
2022-08-23T03:44:42.454Z,99.90
2022-08-23T03:51:42.960Z,99.90
2022-08-23T03:58:43.574Z,99.90
2022-08-23T04:05:44.847Z,99.90
2022-08-23T04:12:49.978Z,99.90
2022-08-23T04:19:52.640Z,99.90
2022-08-23T04:26:53.558Z,99.90
2022-08-23T04:33:56.388Z,99.90
2022-08-23T04:41:16.573Z,99.90
2022-08-23T04:48:19.919Z,99.90
2022-08-23T04:55:23.364Z,99.90
2022-08-23T05:02:31.527Z,99.90
2022-08-23T05:09:32.362Z,99.90
2022-08-23T05:16:33.930Z,99.90
2022-08-23T05:23:40.027Z,99.90
2022-08-23T05:31:05.481Z,99.90
2022-08-23T05:38:16.671Z,99.90
2022-08-23T05:45:21.814Z,99.90
2022-08-23T05:52:23.524Z,99.90
2022-08-23T05:59:24.842Z,99.90
2022-08-23T06:06:36.945Z,99.90
2022-08-23T06:13:47.534Z,99.90
2022-08-23T06:20:47.973Z,99.90
2022-08-23T06:27:54.192Z,99.90
2022-08-23T06:35:27.803Z,99.90
2022-08-23T06:42:42.000Z,99.90
2022-08-23T06:49:51.123Z,99.90
2022-08-23T06:57:18.612Z,99.90
2022-08-23T07:04:40.669Z,99.90
2022-08-23T07:11:48.356Z,99.90
2022-08-23T07:18:49.874Z,99.90
2022-08-23T07:25:50.777Z,99.90
2022-08-23T07:32:54.403Z,99.50
2022-08-23T07:39:58.440Z,99.20
2022-08-23T07:47:00.670Z,98.20
2022-08-23T07:54:05.580Z,97.50
2022-08-23T08:01:17.778Z,97.50
2022-08-23T08:08:22.415Z,97.20
2022-08-23T08:15:23.981Z,96.60
2022-08-23T08:22:32.241Z,96.20
2022-08-23T08:29:55.487Z,95.70
2022-08-23T08:36:58.866Z,95.60
2022-08-23T08:44:25.871Z,95.40
2022-08-23T08:51:42.801Z,94.80
2022-08-23T08:58:50.908Z,94.50
2022-08-23T09:06:00.307Z,94.20
2022-08-23T09:13:41.063Z,94.00
2022-08-23T09:20:47.168Z,92.60
2022-08-23T09:27:48.585Z,93.40
2022-08-23T09:34:50.179Z,93.20
2022-08-23T09:41:51.845Z,93.00
2022-08-23T09:48:55.283Z,92.90
2022-08-23T09:56:12.212Z,92.50
2022-08-23T10:03:42.175Z,91.40
2022-08-23T10:10:55.664Z,91.00
2022-08-23T10:18:42.244Z,91.50
2022-08-23T10:25:52.410Z,90.90
2022-08-23T10:33:18.476Z,91.20
2022-08-23T10:40:36.063Z,90.80
2022-08-23T10:47:54.167Z,90.10
2022-08-23T10:55:06.281Z,89.60
2022-08-23T11:02:17.746Z,89.70
2022-08-23T11:09:22.462Z,89.70
2022-08-23T11:16:31.108Z,88.80
2022-08-23T11:23:43.514Z,88.60
2022-08-23T11:30:50.105Z,86.40
2022-08-23T11:38:05.017Z,86.00
2022-08-23T11:45:28.945Z,83.90
2022-08-23T11:52:46.619Z,83.80
2022-08-23T12:00:11.348Z,83.90
2022-08-23T12:07:14.725Z,83.00
2022-08-23T12:14:58.848Z,81.00
2022-08-23T12:22:09.548Z,79.30
2022-08-23T12:29:25.780Z,78.50
2022-08-23T12:36:42.596Z,77.60
2022-08-23T12:43:56.792Z,76.20
2022-08-23T12:51:01.442Z,75.10
2022-08-23T12:58:02.953Z,72.80
2022-08-23T13:05:13.519Z,73.40
2022-08-23T13:12:16.821Z,72.10
2022-08-23T13:19:19.150Z,71.60
2022-08-23T13:26:39.764Z,70.90
2022-08-23T13:33:41.145Z,70.60
2022-08-23T13:40:47.790Z,69.40
2022-08-23T13:47:51.846Z,68.90
2022-08-23T13:54:53.220Z,69.10
2022-08-23T14:01:54.704Z,68.40
2022-08-23T14:08:55.984Z,66.20
2022-08-23T14:23:25.472Z,65.30
2022-08-23T14:30:32.794Z,65.70
2022-08-23T14:44:56.940Z,63.50
2022-08-23T14:51:57.560Z,63.80
2022-08-23T14:58:58.659Z,64.00
2022-08-23T15:05:59.768Z,64.10
2022-08-23T15:13:14.072Z,64.50
2022-08-23T15:20:26.988Z,64.30
2022-08-23T15:27:27.994Z,64.30
2022-08-23T15:34:29.200Z,64.90
2022-08-23T15:41:30.103Z,64.90
2022-08-23T15:48:36.903Z,63.40
2022-08-23T15:55:39.620Z,63.60
2022-08-23T16:03:04.376Z,63.20
2022-08-23T16:10:03.188Z,62.80
2022-08-23T16:17:05.319Z,64.70
2022-08-23T16:24:07.576Z,65.60
2022-08-23T16:31:08.222Z,66.40
2022-08-23T16:38:09.654Z,66.80
2022-08-23T16:45:10.920Z,66.80
2022-08-23T16:52:12.138Z,66.20
2022-08-23T16:59:13.402Z,66.20
2022-08-23T17:06:14.909Z,66.30
2022-08-23T17:13:18.969Z,66.70
2022-08-23T17:20:22.487Z,67.70
2022-08-23T17:27:24.725Z,68.20
2022-08-23T17:34:25.456Z,68.20
2022-08-23T17:41:28.398Z,69.00
2022-08-23T17:48:29.032Z,69.50
2022-08-23T17:55:32.652Z,70.00
2022-08-23T18:02:33.840Z,70.60
2022-08-23T18:09:37.861Z,71.10
2022-08-23T18:16:43.967Z,71.50
2022-08-23T18:23:46.490Z,72.00
2022-08-23T18:30:57.655Z,72.50
2022-08-23T18:37:58.422Z,72.90
2022-08-23T18:44:59.204Z,73.20
2022-08-23T18:52:00.437Z,73.90
2022-08-23T18:59:01.658Z,74.70
2022-08-23T19:06:02.043Z,75.50
2022-08-23T19:13:03.703Z,76.20
2022-08-23T19:20:06.600Z,77.00
2022-08-23T19:27:07.657Z,77.80
2022-08-23T19:34:09.293Z,78.50
2022-08-23T19:41:09.717Z,79.10
2022-08-23T19:48:57.434Z,81.40
2022-08-23T19:56:01.845Z,80.50
2022-08-23T20:03:03.129Z,81.00
2022-08-23T20:10:09.237Z,81.50
2022-08-23T20:17:10.173Z,82.30
2022-08-23T20:24:13.540Z,83.00
2022-08-23T20:31:24.858Z,83.70
2022-08-23T20:38:33.488Z,84.40
2022-08-23T20:45:35.849Z,86.00
2022-08-23T20:52:36.306Z,85.80
2022-08-23T20:59:40.986Z,86.60
2022-08-23T21:06:51.084Z,87.20
2022-08-23T21:13:51.991Z,88.00
2022-08-23T21:20:53.162Z,88.50
2022-08-23T21:27:53.983Z,89.50
2022-08-23T21:34:55.038Z,90.00
2022-08-23T21:41:56.669Z,90.10
2022-08-23T21:48:57.146Z,90.30
2022-08-23T21:55:58.307Z,90.50
2022-08-23T22:02:58.986Z,90.90
2022-08-23T22:09:59.460Z,91.10
2022-08-23T22:17:00.481Z,91.30
2022-08-23T22:24:00.966Z,91.60
2022-08-23T22:31:02.979Z,91.80
2022-08-23T22:38:13.668Z,92.10
2022-08-23T22:45:14.978Z,92.30
2022-08-23T22:52:15.566Z,92.60
2022-08-23T22:59:18.599Z,92.90
2022-08-23T23:06:19.703Z,93.20
2022-08-23T23:13:23.240Z,93.40
2022-08-23T23:20:41.628Z,93.70
2022-08-23T23:27:42.305Z,93.90
2022-08-23T23:34:42.861Z,94.30
2022-08-23T23:41:43.368Z,94.50
2022-08-23T23:48:46.270Z,94.80
2022-08-23T23:55:48.639Z,95.10
